createdAt,value
2022-12-18T00:04:30.910Z,102750.09
2022-12-18T00:09:39.381Z,102744.81
2022-12-18T00:14:44.882Z,102743.03
2022-12-18T00:19:46.354Z,102734.84
2022-12-18T00:24:47.858Z,102733.03
2022-12-18T00:29:49.442Z,102735.03
2022-12-18T00:34:50.858Z,102739.97
2022-12-18T00:39:52.349Z,102741.78
2022-12-18T00:44:55.060Z,102739.56
2022-12-18T00:49:56.567Z,102730.47
2022-12-18T00:55:01.796Z,102736.09
2022-12-18T01:00:07.850Z,102750.63
2022-12-18T01:05:11.985Z,102756.06
2022-12-18T01:10:14.597Z,102756.41
2022-12-18T01:15:16.788Z,102764.91
2022-12-18T01:20:18.296Z,102749.78
2022-12-18T01:25:20.721Z,102760.84
2022-12-18T01:30:22.210Z,102776.44
2022-12-18T01:35:23.745Z,102768.06
2022-12-18T01:40:25.253Z,102770.94
2022-12-18T01:45:29.994Z,102776.91
2022-12-18T01:50:42.694Z,102781.97
2022-12-18T01:55:52.598Z,102797.34
2022-12-18T02:00:55.612Z,102797.88
2022-12-18T02:06:06.254Z,102790.94
2022-12-18T02:11:20.949Z,102787.28
2022-12-18T02:16:39.917Z,102787.03
2022-12-18T02:21:54.209Z,102787.34
2022-12-18T02:27:08.539Z,102789.13
2022-12-18T02:32:15.519Z,102774.59
2022-12-18T02:37:19.618Z,102779.22
2022-12-18T02:42:23.834Z,102777.38
2022-12-18T02:47:32.183Z,102772.09
2022-12-18T02:52:42.583Z,102772.22
2022-12-18T02:58:04.185Z,102780.16
2022-12-18T03:03:25.127Z,102770.69
2022-12-18T03:08:34.063Z,102764.81
2022-12-18T03:14:05.889Z,102755.69
2022-12-18T03:19:17.424Z,102754.41
2022-12-18T03:24:21.158Z,102756.75
2022-12-18T03:29:34.611Z,102751.66
2022-12-18T03:34:40.465Z,102758.03
2022-12-18T03:39:44.258Z,102773.06
2022-12-18T03:45:02.989Z,102769.75
2022-12-18T03:50:14.612Z,102774.44
2022-12-18T03:55:22.177Z,102779.81
2022-12-18T04:00:31.894Z,102765.66
2022-12-18T04:05:43.986Z,102758.03
2022-12-18T04:10:45.979Z,102759.53
2022-12-18T04:15:47.696Z,102766.75
2022-12-18T04:20:50.813Z,102771.31
2022-12-18T04:25:53.212Z,102754.50
2022-12-18T04:31:08.155Z,102770.94
2022-12-18T04:36:10.640Z,102765.09
2022-12-18T04:41:14.321Z,102774.72
2022-12-18T04:46:17.061Z,102778.56
2022-12-18T04:51:23.324Z,102777.84
2022-12-18T04:56:27.676Z,102778.44
2022-12-18T05:01:34.368Z,102771.09
2022-12-18T05:06:36.442Z,102782.13
2022-12-18T05:11:37.919Z,102786.28
2022-12-18T05:16:39.395Z,102804.25
2022-12-18T05:21:40.919Z,102789.41
2022-12-18T05:26:42.420Z,102790.31
2022-12-18T05:31:43.924Z,102790.81
2022-12-18T05:36:46.233Z,102800.78
2022-12-18T05:41:47.684Z,102798.25
2022-12-18T05:46:49.233Z,102795.31
2022-12-18T05:51:50.716Z,102790.44
2022-12-18T05:56:52.142Z,102797.34
2022-12-18T06:01:53.732Z,102797.03
2022-12-18T06:06:55.420Z,102797.03
2022-12-18T06:11:56.938Z,102800.88
2022-12-18T06:16:58.581Z,102805.63
2022-12-18T06:22:00.143Z,102805.09
2022-12-18T06:27:01.605Z,102811.28
2022-12-18T06:32:03.188Z,102814.91
2022-12-18T06:37:04.874Z,102814.34
2022-12-18T06:42:06.366Z,102815.97
2022-12-18T06:47:07.815Z,102824.28
2022-12-18T06:52:09.526Z,102824.69
2022-12-18T06:57:10.947Z,102824.19
2022-12-18T07:02:13.767Z,102826.78
2022-12-18T07:07:15.425Z,102824.75
2022-12-18T07:12:16.855Z,102833.44
2022-12-18T07:17:18.323Z,102825.81
2022-12-18T07:22:19.826Z,102813.63
2022-12-18T07:27:21.285Z,102820.00
2022-12-18T07:32:22.739Z,102823.50
2022-12-18T07:37:24.229Z,102831.31
2022-12-18T07:42:31.619Z,102816.91
2022-12-18T07:47:36.712Z,102802.28
2022-12-18T07:52:38.227Z,102800.38
2022-12-18T07:57:50.498Z,102813.00
2022-12-18T08:02:54.295Z,102800.19
2022-12-18T08:07:56.938Z,102795.28
2022-12-18T08:13:03.140Z,102800.97
2022-12-18T08:18:11.368Z,102804.66
2022-12-18T08:23:15.559Z,102794.22
2022-12-18T08:28:17.047Z,102788.78
2022-12-18T08:33:18.518Z,102793.03
2022-12-18T08:38:20.007Z,102784.50
2022-12-18T08:43:40.562Z,102787.28
2022-12-18T08:48:42.608Z,102785.19
2022-12-18T08:53:45.404Z,102785.41
2022-12-18T08:58:47.038Z,102788.72
2022-12-18T09:03:50.317Z,102817.66
2022-12-18T09:08:51.775Z,102821.09
2022-12-18T09:13:54.873Z,102839.13
2022-12-18T09:19:00.649Z,102814.88
2022-12-18T09:24:02.424Z,102816.66
2022-12-18T09:29:04.354Z,102818.03
2022-12-18T09:34:07.509Z,102822.41
2022-12-18T09:39:09.214Z,102819.78
2022-12-18T09:44:20.391Z,102819.19
2022-12-18T09:49:27.519Z,102833.53
2022-12-18T09:54:55.305Z,102823.44
2022-12-18T10:00:04.612Z,102812.91
2022-12-18T10:05:16.515Z,102830.06
2022-12-18T10:10:33.134Z,102827.03
2022-12-18T10:15:59.263Z,102806.25
2022-12-18T10:21:20.010Z,102787.25
2022-12-18T10:26:21.629Z,102799.88
2022-12-18T10:31:25.428Z,102773.88
2022-12-18T10:36:27.170Z,102779.91
2022-12-18T10:41:29.407Z,102769.75
2022-12-18T10:46:31.483Z,102772.19
2022-12-18T10:51:38.607Z,102757.59
2022-12-18T10:56:40.417Z,102761.59
2022-12-18T11:01:47.113Z,102737.41
2022-12-18T11:07:00.663Z,102741.88
2022-12-18T11:12:16.488Z,102736.44
2022-12-18T11:17:26.727Z,102725.69
2022-12-18T11:22:31.690Z,102722.53
2022-12-18T11:27:34.133Z,102714.91
2022-12-18T11:32:43.156Z,102711.41
2022-12-18T11:37:55.270Z,102696.28
2022-12-18T11:43:22.926Z,102695.97
2022-12-18T11:48:39.923Z,102681.50
2022-12-18T11:53:42.065Z,102672.78
2022-12-18T11:59:02.449Z,102673.38
2022-12-18T12:04:26.310Z,102659.66
2022-12-18T12:09:49.793Z,102653.34
2022-12-18T12:14:58.019Z,102644.13
2022-12-18T12:20:35.919Z,102644.41
2022-12-18T12:25:58.436Z,102637.94
2022-12-18T12:31:21.668Z,102622.72
2022-12-18T12:36:41.858Z,102631.75
2022-12-18T12:42:04.642Z,102616.97
2022-12-18T12:47:18.777Z,102609.75
2022-12-18T12:52:40.821Z,102591.91
2022-12-18T12:57:51.630Z,102596.28
2022-12-18T13:03:21.281Z,102602.94
2022-12-18T13:08:26.328Z,102584.66
2022-12-18T13:13:50.630Z,102564.44
2022-12-18T13:18:55.310Z,102548.75
2022-12-18T13:23:58.520Z,102542.72
2022-12-18T13:29:03.000Z,102546.94
2022-12-18T13:34:29.542Z,102548.91
2022-12-18T13:39:36.057Z,102535.63
2022-12-18T13:44:42.621Z,102533.66
2022-12-18T13:49:45.172Z,102530.06
2022-12-18T13:54:52.366Z,102525.97
2022-12-18T13:59:54.073Z,102531.88
2022-12-18T14:04:56.494Z,102515.56
2022-12-18T14:10:18.641Z,102498.69
2022-12-18T14:15:48.510Z,102501.69
2022-12-18T14:20:53.212Z,102492.66
2022-12-18T14:25:54.953Z,102483.00
2022-12-18T14:30:57.417Z,102487.97
2022-12-18T14:36:02.222Z,102477.88
2022-12-18T14:41:12.890Z,102482.84
2022-12-18T14:46:33.698Z,102469.44
2022-12-18T14:51:36.792Z,102466.13
2022-12-18T14:56:46.209Z,102459.47
2022-12-18T15:01:49.534Z,102457.19
2022-12-18T15:07:05.128Z,102444.38
2022-12-18T15:12:20.657Z,102438.66
2022-12-18T15:17:24.226Z,102412.72
2022-12-18T15:22:33.872Z,102402.78
2022-12-18T15:27:38.654Z,102385.13
2022-12-18T15:32:43.530Z,102378.50
2022-12-18T15:37:45.820Z,102371.41
2022-12-18T15:43:07.260Z,102373.69
2022-12-18T15:48:24.585Z,102377.44
2022-12-18T15:53:31.121Z,102379.38
2022-12-18T15:58:33.707Z,102388.53
2022-12-18T16:03:35.375Z,102368.03
2022-12-18T16:08:37.010Z,102363.50
2022-12-18T16:13:39.130Z,102345.25
2022-12-18T16:18:40.788Z,102323.72
2022-12-18T16:23:42.707Z,102307.88
2022-12-18T16:28:48.417Z,102314.19
2022-12-18T16:33:50.501Z,102296.53
2022-12-18T16:38:52.161Z,102297.00
2022-12-18T16:43:55.139Z,102290.53
2022-12-18T16:48:59.343Z,102286.59
2022-12-18T16:54:05.100Z,102282.66
2022-12-18T16:59:11.960Z,102272.69
2022-12-18T17:04:13.747Z,102249.75
2022-12-18T17:09:16.483Z,102246.41
2022-12-18T17:14:20.277Z,102242.47
2022-12-18T17:19:22.746Z,102242.63
2022-12-18T17:24:24.351Z,102250.88
2022-12-18T17:29:25.880Z,102233.94
2022-12-18T17:34:28.475Z,102227.59
2022-12-18T17:39:31.480Z,102214.59
2022-12-18T17:44:34.275Z,102216.50
2022-12-18T17:49:36.066Z,102197.19
2022-12-18T17:54:39.767Z,102180.66
2022-12-18T17:59:41.514Z,102198.91
2022-12-18T18:04:42.964Z,102188.44
2022-12-18T18:09:44.493Z,102175.13
2022-12-18T18:14:45.958Z,102152.44
2022-12-18T18:19:49.657Z,102149.38
2022-12-18T18:24:51.798Z,102145.41
2022-12-18T18:29:53.341Z,102170.47
2022-12-18T18:34:54.859Z,102154.41
2022-12-18T18:39:56.874Z,102150.81
2022-12-18T18:44:58.398Z,102153.38
2022-12-18T18:50:00.080Z,102142.50
2022-12-18T18:55:13.425Z,102129.66
2022-12-18T19:00:23.474Z,102142.50
2022-12-18T19:05:28.120Z,102146.84
2022-12-18T19:10:31.099Z,102141.97
2022-12-18T19:15:34.220Z,102150.13
2022-12-18T19:20:35.936Z,102144.06
2022-12-18T19:25:42.540Z,102135.13
2022-12-18T19:30:44.731Z,102118.16
2022-12-18T19:35:46.421Z,102117.88
2022-12-18T19:40:48.526Z,102124.06
2022-12-18T19:45:55.118Z,102130.25
2022-12-18T19:50:56.816Z,102123.16
2022-12-18T19:55:58.446Z,102113.16
2022-12-18T20:00:59.970Z,102127.81
2022-12-18T20:06:18.809Z,102119.44
2022-12-18T20:11:20.321Z,102108.56
2022-12-18T20:16:23.346Z,102116.75
2022-12-18T20:21:25.263Z,102127.16
2022-12-18T20:26:26.956Z,102135.50
2022-12-18T20:31:28.460Z,102122.81
2022-12-18T20:36:30.643Z,102116.13
2022-12-18T20:41:37.907Z,102104.56
2022-12-18T20:46:40.413Z,102112.13
2022-12-18T20:51:41.940Z,102107.66
2022-12-18T20:56:43.441Z,102098.91
2022-12-18T21:01:48.365Z,102095.72
2022-12-18T21:06:55.738Z,102091.19
2022-12-18T21:12:22.353Z,102081.59
2022-12-18T21:17:23.992Z,102062.19
2022-12-18T21:22:28.227Z,102060.38
2022-12-18T21:27:29.698Z,102059.34
2022-12-18T21:32:33.441Z,102058.06
2022-12-18T21:37:35.579Z,102060.41
2022-12-18T21:42:55.531Z,102056.31
2022-12-18T21:47:57.468Z,102062.34
2022-12-18T21:52:58.983Z,102067.22
2022-12-18T21:58:00.450Z,102065.81
2022-12-18T22:03:17.219Z,102055.78
2022-12-18T22:08:19.621Z,102046.69
2022-12-18T22:13:21.126Z,102048.78
2022-12-18T22:18:22.793Z,102034.50
2022-12-18T22:23:24.315Z,102015.75
2022-12-18T22:28:44.402Z,102014.47
2022-12-18T22:33:46.159Z,102012.41
2022-12-18T22:38:48.479Z,102004.56
2022-12-18T22:43:50.079Z,102000.47
2022-12-18T22:48:51.575Z,102000.47
2022-12-18T22:53:53.129Z,101997.63
2022-12-18T22:58:56.499Z,101980.31
2022-12-18T23:04:00.510Z,101974.63
2022-12-18T23:09:01.956Z,101966.41
2022-12-18T23:14:03.510Z,101962.19
2022-12-18T23:19:05.738Z,101958.31
2022-12-18T23:24:07.563Z,101954.97
2022-12-18T23:29:09.107Z,101937.88
2022-12-18T23:34:12.739Z,101928.34
2022-12-18T23:39:21.602Z,101924.38
2022-12-18T23:44:31.706Z,101924.25
2022-12-18T23:49:33.152Z,101924.75
2022-12-18T23:54:35.102Z,101908.16
2022-12-18T23:59:36.602Z,101908.28
